首页
METAR-TAF:

METAR-TAF

机场 :

渥太华麦克唐纳-卡蒂埃国际机场

渥太華, 安大略省, 加拿大

纬度: 45-19N, 经度: 075-40W, 海拔: 116米

当前天气观测

该预报发布于1小时和5分钟前的08:00 UTC
风速7节,风向南转南东
温度 16°C
湿度 94%
气压 1013 hPa
能見度: 24.1公里
天空无云

METAR: CYOW 260800Z 16007KT 15SM SKC 16/15 A2991 RMK SLP130 DENSITY ALT 600FT

时间: 05:05 (09:05 UTC)

预报

该预报发布于27分钟前的08:38 UTC
预报有效从26日的 09点(UTC)到 27日的 06点(UTC)
风速7节,风向
能見度: 10公里
少量云层高于5000英尺
几率 30%
从 26日的 09点(UTC)到 26日的 11点(UTC)
能見度: 0.8公里
从 26日的 1300点(UTC)
风速10节,风向南转西南
能見度: 10公里
多云层高于4000英尺
小阵雨
从 26日的 1600点(UTC)
风速10节,风向南转西南,有时为20节阵风
能見度: 10公里
多云层高于3000英尺
从 26日的 1800点(UTC)
风速10节,风向南转西南,有时为20节阵风
能見度: 10公里
多云层高于3000英尺
小阵雨
几率 40%
从 26日的 18点(UTC)到 26日的 24点(UTC)
风速20节,风向多变,有时为35节阵风
能見度: 1.6公里
多云层高于800英尺
阴天层高于3000英尺, 积雨云.
雷暴, (大) 冰雹, 雨, 轻雾
从 27日的 0000点(UTC)
风速5节,风向西南
能見度: 10公里
散云层高于6000英尺
几率 30%
从 27日的 03点(UTC)到 27日的 06点(UTC)
能見度: 0.8公里

TAF: CYOW 260838Z 2609/2706 17007KT P6SM FEW050 PROB30 2609/2611 1/2SM FG FM261300 20010KT P6SM -SHRA BKN040 FM261600 20010G20KT P6SM BKN030 FM261800 21010G20KT P6SM -SHRA BKN030 PROB40 2618/2624 VRB20G35KT 1SM +TSGRRA BR BKN008 OVC030CB FM270000 22005KT P6SM SCT060 PROB30 2703/2706 1/2SM FG RMK NXT FCST BY 261200Z

超过4000个机场的气象观测和天气预报(METAR&TAF报告)。

可查询的气象台以黄色和红色小点在地图上表示。

将鼠标移到小点上方,可查看气象台名称。

然后点击查看天气观测和预报。

如需切换地图:点击带黑十字的绿色按钮放大地图;点击带横线的绿色按钮缩小地图;或者点击绿色箭头查看邻近地区的地图。


METAR-TAF: